sensor_id;sensor_type;location;lat;lon;timestamp;P1;durP1;ratioP1;P2;durP2;ratioP2
52668;SDS011;59898;52.786;6.892;2023-01-15T00:02:58;4.38;;;2.30;;
52668;SDS011;59898;52.786;6.892;2023-01-15T00:06:19;8.45;;;2.22;;
52668;SDS011;59898;52.786;6.892;2023-01-15T00:09:41;11.13;;;2.63;;
52668;SDS011;59898;52.786;6.892;2023-01-15T00:13:02;7.93;;;2.22;;
52668;SDS011;59898;52.786;6.892;2023-01-15T00:16:23;10.05;;;2.88;;
52668;SDS011;59898;52.786;6.892;2023-01-15T00:19:45;6.82;;;2.53;;
52668;SDS011;59898;52.786;6.892;2023-01-15T00:23:06;5.88;;;2.33;;
52668;SDS011;59898;52.786;6.892;2023-01-15T00:26:46;7.22;;;1.88;;
52668;SDS011;59898;52.786;6.892;2023-01-15T00:30:25;12.82;;;2.65;;
52668;SDS011;59898;52.786;6.892;2023-01-15T00:33:46;5.57;;;1.92;;
52668;SDS011;59898;52.786;6.892;2023-01-15T00:37:07;6.30;;;2.55;;
52668;SDS011;59898;52.786;6.892;2023-01-15T00:40:27;7.97;;;3.63;;
52668;SDS011;59898;52.786;6.892;2023-01-15T00:43:48;5.00;;;2.38;;
52668;SDS011;59898;52.786;6.892;2023-01-15T00:47:09;7.93;;;2.05;;
52668;SDS011;59898;52.786;6.892;2023-01-15T00:50:33;12.57;;;2.47;;
52668;SDS011;59898;52.786;6.892;2023-01-15T00:53:54;9.25;;;2.00;;
52668;SDS011;59898;52.786;6.892;2023-01-15T00:57:15;9.45;;;2.53;;
52668;SDS011;59898;52.786;6.892;2023-01-15T01:00:35;10.25;;;3.67;;
52668;SDS011;59898;52.786;6.892;2023-01-15T01:03:56;7.85;;;2.42;;
52668;SDS011;59898;52.786;6.892;2023-01-15T01:07:17;10.45;;;2.35;;
52668;SDS011;59898;52.786;6.892;2023-01-15T01:10:38;9.50;;;2.38;;
52668;SDS011;59898;52.786;6.892;2023-01-15T01:13:59;9.32;;;2.95;;
52668;SDS011;59898;52.786;6.892;2023-01-15T01:17:21;6.55;;;2.00;;
52668;SDS011;59898;52.786;6.892;2023-01-15T01:20:41;7.35;;;2.63;;
52668;SDS011;59898;52.786;6.892;2023-01-15T01:24:02;10.35;;;2.22;;
52668;SDS011;59898;52.786;6.892;2023-01-15T01:27:24;12.02;;;3.33;;
52668;SDS011;59898;52.786;6.892;2023-01-15T01:30:44;10.25;;;2.97;;
52668;SDS011;59898;52.786;6.892;2023-01-15T01:34:05;5.32;;;2.33;;
52668;SDS011;59898;52.786;6.892;2023-01-15T01:37:26;7.43;;;2.35;;
52668;SDS011;59898;52.786;6.892;2023-01-15T01:40:47;6.88;;;2.65;;
52668;SDS011;59898;52.786;6.892;2023-01-15T01:47:55;8.45;;;3.83;;
52668;SDS011;59898;52.786;6.892;2023-01-15T01:51:19;9.23;;;3.08;;
52668;SDS011;59898;52.786;6.892;2023-01-15T01:54:43;15.25;;;2.85;;
52668;SDS011;59898;52.786;6.892;2023-01-15T01:58:06;12.20;;;2.42;;
52668;SDS011;59898;52.786;6.892;2023-01-15T02:01:29;6.28;;;2.10;;
52668;SDS011;59898;52.786;6.892;2023-01-15T02:04:50;4.70;;;2.22;;
52668;SDS011;59898;52.786;6.892;2023-01-15T02:08:11;12.73;;;3.25;;
52668;SDS011;59898;52.786;6.892;2023-01-15T02:11:32;11.88;;;2.28;;
52668;SDS011;59898;52.786;6.892;2023-01-15T02:22:13;8.40;;;2.90;;
52668;SDS011;59898;52.786;6.892;2023-01-15T02:29:18;13.77;;;2.33;;
52668;SDS011;59898;52.786;6.892;2023-01-15T02:32:55;8.23;;;2.50;;
52668;SDS011;59898;52.786;6.892;2023-01-15T02:36:19;11.18;;;2.95;;
52668;SDS011;59898;52.786;6.892;2023-01-15T02:39:42;13.43;;;2.67;;
52668;SDS011;59898;52.786;6.892;2023-01-15T02:43:06;8.00;;;3.22;;
52668;SDS011;59898;52.786;6.892;2023-01-15T02:46:29;11.73;;;2.88;;
52668;SDS011;59898;52.786;6.892;2023-01-15T02:49:54;13.80;;;3.25;;
52668;SDS011;59898;52.786;6.892;2023-01-15T02:53:20;16.60;;;2.90;;
52668;SDS011;59898;52.786;6.892;2023-01-15T02:56:46;9.40;;;2.35;;
52668;SDS011;59898;52.786;6.892;2023-01-15T03:03:42;8.85;;;2.92;;
52668;SDS011;59898;52.786;6.892;2023-01-15T03:07:21;10.30;;;3.78;;
52668;SDS011;59898;52.786;6.892;2023-01-15T03:14:31;8.75;;;3.17;;
52668;SDS011;59898;52.786;6.892;2023-01-15T03:17:57;7.85;;;2.28;;
52668;SDS011;59898;52.786;6.892;2023-01-15T03:21:21;8.52;;;2.88;;
52668;SDS011;59898;52.786;6.892;2023-01-15T03:24:53;11.18;;;3.55;;
52668;SDS011;59898;52.786;6.892;2023-01-15T03:28:21;12.85;;;3.10;;
52668;SDS011;59898;52.786;6.892;2023-01-15T03:31:45;9.45;;;2.65;;
52668;SDS011;59898;52.786;6.892;2023-01-15T03:35:07;8.43;;;2.78;;
52668;SDS011;59898;52.786;6.892;2023-01-15T03:38:48;13.60;;;3.80;;
52668;SDS011;59898;52.786;6.892;2023-01-15T03:42:14;7.22;;;2.95;;
52668;SDS011;59898;52.786;6.892;2023-01-15T03:45:44;10.85;;;2.63;;
52668;SDS011;59898;52.786;6.892;2023-01-15T03:52:47;5.68;;;2.30;;
52668;SDS011;59898;52.786;6.892;2023-01-15T03:56:16;14.43;;;3.20;;
52668;SDS011;59898;52.786;6.892;2023-01-15T03:59:48;10.07;;;2.73;;
52668;SDS011;59898;52.786;6.892;2023-01-15T04:03:13;8.05;;;3.00;;
52668;SDS011;59898;52.786;6.892;2023-01-15T04:06:36;9.82;;;2.53;;
52668;SDS011;59898;52.786;6.892;2023-01-15T04:09:59;14.48;;;3.67;;
52668;SDS011;59898;52.786;6.892;2023-01-15T04:13:20;8.85;;;3.50;;
52668;SDS011;59898;52.786;6.892;2023-01-15T04:16:41;15.68;;;4.50;;
52668;SDS011;59898;52.786;6.892;2023-01-15T04:20:02;13.45;;;2.80;;
52668;SDS011;59898;52.786;6.892;2023-01-15T04:23:23;9.25;;;3.33;;
52668;SDS011;59898;52.786;6.892;2023-01-15T04:26:43;18.40;;;5.40;;
52668;SDS011;59898;52.786;6.892;2023-01-15T04:30:04;12.00;;;3.45;;
52668;SDS011;59898;52.786;6.892;2023-01-15T04:33:25;9.93;;;3.58;;
52668;SDS011;59898;52.786;6.892;2023-01-15T04:36:46;7.22;;;2.33;;
52668;SDS011;59898;52.786;6.892;2023-01-15T04:40:07;13.50;;;3.80;;
52668;SDS011;59898;52.786;6.892;2023-01-15T04:43:28;15.82;;;3.65;;
52668;SDS011;59898;52.786;6.892;2023-01-15T04:47:07;13.50;;;2.50;;
52668;SDS011;59898;52.786;6.892;2023-01-15T04:50:28;11.65;;;3.35;;
52668;SDS011;59898;52.786;6.892;2023-01-15T04:53:49;9.05;;;2.70;;
52668;SDS011;59898;52.786;6.892;2023-01-15T04:57:10;6.60;;;3.60;;
52668;SDS011;59898;52.786;6.892;2023-01-15T05:00:31;8.77;;;3.08;;
52668;SDS011;59898;52.786;6.892;2023-01-15T05:03:51;10.60;;;2.90;;
52668;SDS011;59898;52.786;6.892;2023-01-15T05:07:12;9.13;;;3.03;;
52668;SDS011;59898;52.786;6.892;2023-01-15T05:10:33;7.05;;;2.13;;
52668;SDS011;59898;52.786;6.892;2023-01-15T05:13:53;11.43;;;3.13;;
52668;SDS011;59898;52.786;6.892;2023-01-15T05:17:14;16.35;;;3.97;;
52668;SDS011;59898;52.786;6.892;2023-01-15T05:20:35;9.93;;;2.92;;
52668;SDS011;59898;52.786;6.892;2023-01-15T05:23:57;11.55;;;3.25;;
52668;SDS011;59898;52.786;6.892;2023-01-15T05:27:19;7.85;;;2.95;;
52668;SDS011;59898;52.786;6.892;2023-01-15T05:30:40;7.68;;;2.75;;
52668;SDS011;59898;52.786;6.892;2023-01-15T05:34:00;9.20;;;2.88;;
52668;SDS011;59898;52.786;6.892;2023-01-15T05:37:21;11.15;;;2.33;;
52668;SDS011;59898;52.786;6.892;2023-01-15T05:40:42;13.07;;;3.95;;
52668;SDS011;59898;52.786;6.892;2023-01-15T05:44:04;9.10;;;2.72;;
52668;SDS011;59898;52.786;6.892;2023-01-15T05:47:26;12.80;;;2.75;;
52668;SDS011;59898;52.786;6.892;2023-01-15T05:50:47;14.02;;;3.58;;
52668;SDS011;59898;52.786;6.892;2023-01-15T05:54:09;5.05;;;2.10;;
52668;SDS011;59898;52.786;6.892;2023-01-15T05:57:32;9.25;;;2.95;;
52668;SDS011;59898;52.786;6.892;2023-01-15T06:00:53;8.45;;;2.80;;
52668;SDS011;59898;52.786;6.892;2023-01-15T06:04:14;5.60;;;2.20;;
52668;SDS011;59898;52.786;6.892;2023-01-15T06:07:36;10.57;;;2.63;;
52668;SDS011;59898;52.786;6.892;2023-01-15T06:10:57;6.55;;;2.30;;
52668;SDS011;59898;52.786;6.892;2023-01-15T06:14:17;5.88;;;2.13;;
52668;SDS011;59898;52.786;6.892;2023-01-15T06:17:38;10.75;;;3.13;;
52668;SDS011;59898;52.786;6.892;2023-01-15T06:21:05;9.00;;;3.28;;
52668;SDS011;59898;52.786;6.892;2023-01-15T06:24:27;11.32;;;3.38;;
52668;SDS011;59898;52.786;6.892;2023-01-15T06:27:48;11.82;;;2.85;;
52668;SDS011;59898;52.786;6.892;2023-01-15T06:31:10;9.55;;;2.30;;
52668;SDS011;59898;52.786;6.892;2023-01-15T06:34:32;9.57;;;3.00;;
52668;SDS011;59898;52.786;6.892;2023-01-15T06:37:53;8.93;;;2.75;;
52668;SDS011;59898;52.786;6.892;2023-01-15T06:41:21;5.32;;;1.80;;
52668;SDS011;59898;52.786;6.892;2023-01-15T06:45:02;11.52;;;2.83;;
52668;SDS011;59898;52.786;6.892;2023-01-15T06:48:41;16.83;;;3.70;;
52668;SDS011;59898;52.786;6.892;2023-01-15T06:52:02;7.72;;;2.97;;
52668;SDS011;59898;52.786;6.892;2023-01-15T06:55:24;15.65;;;2.83;;
52668;SDS011;59898;52.786;6.892;2023-01-15T06:58:45;12.88;;;2.83;;
52668;SDS011;59898;52.786;6.892;2023-01-15T07:02:06;8.70;;;2.33;;
52668;SDS011;59898;52.786;6.892;2023-01-15T07:05:27;15.88;;;3.17;;
52668;SDS011;59898;52.786;6.892;2023-01-15T07:08:47;10.68;;;3.13;;
52668;SDS011;59898;52.786;6.892;2023-01-15T07:12:08;10.60;;;2.72;;
52668;SDS011;59898;52.786;6.892;2023-01-15T07:15:29;6.47;;;2.80;;
52668;SDS011;59898;52.786;6.892;2023-01-15T07:18:50;3.92;;;1.98;;
52668;SDS011;59898;52.786;6.892;2023-01-15T07:22:10;8.32;;;3.00;;
52668;SDS011;59898;52.786;6.892;2023-01-15T07:25:32;8.48;;;2.45;;
52668;SDS011;59898;52.786;6.892;2023-01-15T07:28:52;6.95;;;2.63;;
52668;SDS011;59898;52.786;6.892;2023-01-15T07:32:13;10.38;;;3.63;;
52668;SDS011;59898;52.786;6.892;2023-01-15T07:35:34;12.55;;;2.85;;
52668;SDS011;59898;52.786;6.892;2023-01-15T07:38:55;15.27;;;3.17;;
52668;SDS011;59898;52.786;6.892;2023-01-15T07:42:16;7.40;;;2.13;;
52668;SDS011;59898;52.786;6.892;2023-01-15T07:45:55;8.80;;;2.60;;
52668;SDS011;59898;52.786;6.892;2023-01-15T07:49:34;7.70;;;2.42;;
52668;SDS011;59898;52.786;6.892;2023-01-15T07:53:04;9.35;;;2.15;;
52668;SDS011;59898;52.786;6.892;2023-01-15T07:56:25;10.30;;;2.65;;
52668;SDS011;59898;52.786;6.892;2023-01-15T07:59:46;9.23;;;2.20;;
52668;SDS011;59898;52.786;6.892;2023-01-15T08:03:06;12.02;;;2.40;;
52668;SDS011;59898;52.786;6.892;2023-01-15T08:06:28;7.82;;;3.50;;
52668;SDS011;59898;52.786;6.892;2023-01-15T08:09:48;13.70;;;3.60;;
52668;SDS011;59898;52.786;6.892;2023-01-15T08:13:09;10.00;;;2.30;;
52668;SDS011;59898;52.786;6.892;2023-01-15T08:16:48;6.13;;;2.10;;
52668;SDS011;59898;52.786;6.892;2023-01-15T08:20:11;8.82;;;2.30;;
52668;SDS011;59898;52.786;6.892;2023-01-15T08:23:42;6.38;;;2.92;;
52668;SDS011;59898;52.786;6.892;2023-01-15T08:27:05;7.47;;;2.40;;
52668;SDS011;59898;52.786;6.892;2023-01-15T08:30:26;10.43;;;3.83;;
52668;SDS011;59898;52.786;6.892;2023-01-15T08:33:46;8.05;;;2.35;;
52668;SDS011;59898;52.786;6.892;2023-01-15T08:37:07;6.55;;;2.08;;
52668;SDS011;59898;52.786;6.892;2023-01-15T08:40:28;8.82;;;3.63;;
52668;SDS011;59898;52.786;6.892;2023-01-15T08:43:49;5.50;;;2.30;;
52668;SDS011;59898;52.786;6.892;2023-01-15T08:47:09;12.73;;;2.65;;
52668;SDS011;59898;52.786;6.892;2023-01-15T08:50:30;4.97;;;2.17;;
52668;SDS011;59898;52.786;6.892;2023-01-15T08:53:51;6.45;;;3.03;;
52668;SDS011;59898;52.786;6.892;2023-01-15T08:57:11;8.23;;;2.80;;
52668;SDS011;59898;52.786;6.892;2023-01-15T09:00:32;8.25;;;2.30;;
52668;SDS011;59898;52.786;6.892;2023-01-15T09:03:53;9.38;;;2.10;;
52668;SDS011;59898;52.786;6.892;2023-01-15T09:07:14;6.18;;;2.22;;
52668;SDS011;59898;52.786;6.892;2023-01-15T09:10:35;4.05;;;1.83;;
52668;SDS011;59898;52.786;6.892;2023-01-15T09:13:56;7.05;;;2.15;;
52668;SDS011;59898;52.786;6.892;2023-01-15T09:17:17;6.85;;;2.15;;
52668;SDS011;59898;52.786;6.892;2023-01-15T09:20:37;4.90;;;1.70;;
52668;SDS011;59898;52.786;6.892;2023-01-15T09:23:58;7.15;;;2.00;;
52668;SDS011;59898;52.786;6.892;2023-01-15T09:27:19;9.23;;;2.15;;
52668;SDS011;59898;52.786;6.892;2023-01-15T09:30:39;3.67;;;1.23;;
52668;SDS011;59898;52.786;6.892;2023-01-15T09:34:00;2.83;;;1.17;;
52668;SDS011;59898;52.786;6.892;2023-01-15T09:37:21;5.80;;;1.88;;
52668;SDS011;59898;52.786;6.892;2023-01-15T09:55:19;6.90;;;2.58;;
52668;SDS011;59898;52.786;6.892;2023-01-15T09:58:46;7.40;;;2.57;;
52668;SDS011;59898;52.786;6.892;2023-01-15T10:05:48;8.68;;;2.92;;
52668;SDS011;59898;52.786;6.892;2023-01-15T10:09:22;8.10;;;2.22;;
52668;SDS011;59898;52.786;6.892;2023-01-15T10:12:52;7.55;;;2.78;;
52668;SDS011;59898;52.786;6.892;2023-01-15T10:16:27;11.57;;;2.70;;
52668;SDS011;59898;52.786;6.892;2023-01-15T10:19:50;8.50;;;3.97;;
52668;SDS011;59898;52.786;6.892;2023-01-15T10:26:37;6.32;;;2.38;;
52668;SDS011;59898;52.786;6.892;2023-01-15T10:37:20;6.07;;;2.35;;
52668;SDS011;59898;52.786;6.892;2023-01-15T10:51:46;9.90;;;2.10;;
52668;SDS011;59898;52.786;6.892;2023-01-15T10:58:53;12.68;;;3.00;;
52668;SDS011;59898;52.786;6.892;2023-01-15T11:02:36;12.27;;;3.05;;
52668;SDS011;59898;52.786;6.892;2023-01-15T11:06:01;6.77;;;2.40;;
52668;SDS011;59898;52.786;6.892;2023-01-15T11:09:23;13.90;;;2.78;;
52668;SDS011;59898;52.786;6.892;2023-01-15T11:12:53;11.32;;;2.50;;
52668;SDS011;59898;52.786;6.892;2023-01-15T11:16:53;8.85;;;2.78;;
52668;SDS011;59898;52.786;6.892;2023-01-15T11:20:27;12.23;;;2.97;;
52668;SDS011;59898;52.786;6.892;2023-01-15T11:23:49;6.75;;;2.65;;
52668;SDS011;59898;52.786;6.892;2023-01-15T11:27:18;12.63;;;2.65;;
52668;SDS011;59898;52.786;6.892;2023-01-15T11:30:41;7.55;;;2.78;;
52668;SDS011;59898;52.786;6.892;2023-01-15T11:34:04;7.23;;;2.60;;
52668;SDS011;59898;52.786;6.892;2023-01-15T11:37:34;7.25;;;2.15;;
52668;SDS011;59898;52.786;6.892;2023-01-15T11:40:56;7.03;;;1.92;;
52668;SDS011;59898;52.786;6.892;2023-01-15T11:44:22;13.50;;;2.67;;
52668;SDS011;59898;52.786;6.892;2023-01-15T11:48:01;10.73;;;3.28;;
52668;SDS011;59898;52.786;6.892;2023-01-15T11:51:50;11.65;;;1.77;;
52668;SDS011;59898;52.786;6.892;2023-01-15T11:55:12;10.02;;;2.63;;
52668;SDS011;59898;52.786;6.892;2023-01-15T11:58:58;9.48;;;2.72;;
52668;SDS011;59898;52.786;6.892;2023-01-15T12:02:31;5.63;;;2.43;;
52668;SDS011;59898;52.786;6.892;2023-01-15T12:06:02;6.13;;;2.17;;
52668;SDS011;59898;52.786;6.892;2023-01-15T12:28:04;9.00;;;2.97;;
52668;SDS011;59898;52.786;6.892;2023-01-15T12:31:34;9.57;;;3.30;;
52668;SDS011;59898;52.786;6.892;2023-01-15T12:35:06;11.68;;;3.70;;
52668;SDS011;59898;52.786;6.892;2023-01-15T12:38:40;8.07;;;2.83;;
52668;SDS011;59898;52.786;6.892;2023-01-15T12:42:18;12.80;;;3.15;;
52668;SDS011;59898;52.786;6.892;2023-01-15T12:46:01;10.73;;;3.40;;
52668;SDS011;59898;52.786;6.892;2023-01-15T12:49:31;5.60;;;2.35;;
52668;SDS011;59898;52.786;6.892;2023-01-15T12:56:34;11.30;;;3.35;;
52668;SDS011;59898;52.786;6.892;2023-01-15T13:00:17;10.90;;;3.53;;
52668;SDS011;59898;52.786;6.892;2023-01-15T13:04:10;6.32;;;2.22;;
52668;SDS011;59898;52.786;6.892;2023-01-15T13:07:49;8.60;;;2.58;;
52668;SDS011;59898;52.786;6.892;2023-01-15T13:11:20;7.72;;;2.67;;
52668;SDS011;59898;52.786;6.892;2023-01-15T13:14:41;7.30;;;2.00;;
52668;SDS011;59898;52.786;6.892;2023-01-15T13:18:04;11.85;;;3.17;;
52668;SDS011;59898;52.786;6.892;2023-01-15T13:21:42;11.10;;;2.95;;
52668;SDS011;59898;52.786;6.892;2023-01-15T13:32:17;9.30;;;2.70;;
52668;SDS011;59898;52.786;6.892;2023-01-15T13:35:41;8.32;;;2.92;;
52668;SDS011;59898;52.786;6.892;2023-01-15T13:39:06;10.93;;;3.13;;
52668;SDS011;59898;52.786;6.892;2023-01-15T13:42:36;8.50;;;3.45;;
52668;SDS011;59898;52.786;6.892;2023-01-15T13:46:00;11.45;;;2.50;;
52668;SDS011;59898;52.786;6.892;2023-01-15T13:49:30;5.93;;;2.67;;
52668;SDS011;59898;52.786;6.892;2023-01-15T13:53:02;6.47;;;2.75;;
52668;SDS011;59898;52.786;6.892;2023-01-15T13:56:27;8.35;;;3.50;;
52668;SDS011;59898;52.786;6.892;2023-01-15T13:59:50;10.88;;;3.13;;
52668;SDS011;59898;52.786;6.892;2023-01-15T14:03:27;5.63;;;2.33;;
52668;SDS011;59898;52.786;6.892;2023-01-15T14:06:49;8.68;;;2.42;;
52668;SDS011;59898;52.786;6.892;2023-01-15T14:13:45;4.53;;;2.05;;
52668;SDS011;59898;52.786;6.892;2023-01-15T14:35:11;9.85;;;3.20;;
52668;SDS011;59898;52.786;6.892;2023-01-15T14:38:34;12.10;;;4.03;;
52668;SDS011;59898;52.786;6.892;2023-01-15T14:41:57;7.32;;;2.63;;
52668;SDS011;59898;52.786;6.892;2023-01-15T14:45:48;6.07;;;1.67;;
52668;SDS011;59898;52.786;6.892;2023-01-15T14:49:30;3.78;;;1.30;;
52668;SDS011;59898;52.786;6.892;2023-01-15T14:53:25;4.68;;;1.27;;
52668;SDS011;59898;52.786;6.892;2023-01-15T14:56:44;1.98;;;1.10;;
52668;SDS011;59898;52.786;6.892;2023-01-15T15:00:11;6.03;;;1.50;;
52668;SDS011;59898;52.786;6.892;2023-01-15T15:03:36;2.53;;;1.52;;
52668;SDS011;59898;52.786;6.892;2023-01-15T15:07:11;2.17;;;1.13;;
52668;SDS011;59898;52.786;6.892;2023-01-15T15:10:38;2.78;;;1.80;;
52668;SDS011;59898;52.786;6.892;2023-01-15T15:14:02;3.35;;;1.00;;
52668;SDS011;59898;52.786;6.892;2023-01-15T15:17:29;4.55;;;1.55;;
52668;SDS011;59898;52.786;6.892;2023-01-15T15:21:05;4.00;;;1.77;;
52668;SDS011;59898;52.786;6.892;2023-01-15T15:24:36;6.07;;;1.60;;
52668;SDS011;59898;52.786;6.892;2023-01-15T15:28:09;2.13;;;1.20;;
52668;SDS011;59898;52.786;6.892;2023-01-15T15:31:31;2.35;;;1.60;;
52668;SDS011;59898;52.786;6.892;2023-01-15T15:35:23;3.92;;;1.80;;
52668;SDS011;59898;52.786;6.892;2023-01-15T15:38:50;5.07;;;1.83;;
52668;SDS011;59898;52.786;6.892;2023-01-15T15:42:20;4.72;;;2.00;;
52668;SDS011;59898;52.786;6.892;2023-01-15T15:46:14;3.92;;;1.58;;
52668;SDS011;59898;52.786;6.892;2023-01-15T15:50:00;5.22;;;1.48;;
52668;SDS011;59898;52.786;6.892;2023-01-15T15:53:21;4.90;;;2.35;;
52668;SDS011;59898;52.786;6.892;2023-01-15T16:00:37;6.13;;;2.30;;
52668;SDS011;59898;52.786;6.892;2023-01-15T16:04:02;8.38;;;1.75;;
52668;SDS011;59898;52.786;6.892;2023-01-15T16:07:24;6.13;;;3.03;;
52668;SDS011;59898;52.786;6.892;2023-01-15T16:10:46;8.35;;;2.60;;
52668;SDS011;59898;52.786;6.892;2023-01-15T16:14:10;7.60;;;2.45;;
52668;SDS011;59898;52.786;6.892;2023-01-15T16:17:34;3.08;;;1.98;;
52668;SDS011;59898;52.786;6.892;2023-01-15T16:20:58;7.15;;;1.48;;
52668;SDS011;59898;52.786;6.892;2023-01-15T16:24:26;3.97;;;1.90;;
52668;SDS011;59898;52.786;6.892;2023-01-15T16:27:48;9.43;;;3.20;;
52668;SDS011;59898;52.786;6.892;2023-01-15T16:31:09;6.35;;;2.88;;
52668;SDS011;59898;52.786;6.892;2023-01-15T16:34:31;4.75;;;2.25;;
52668;SDS011;59898;52.786;6.892;2023-01-15T16:37:54;8.18;;;2.17;;
52668;SDS011;59898;52.786;6.892;2023-01-15T16:41:23;6.00;;;1.90;;
52668;SDS011;59898;52.786;6.892;2023-01-15T16:44:52;6.75;;;1.70;;
52668;SDS011;59898;52.786;6.892;2023-01-15T16:51:40;3.65;;;1.27;;
52668;SDS011;59898;52.786;6.892;2023-01-15T16:55:02;4.65;;;2.30;;
52668;SDS011;59898;52.786;6.892;2023-01-15T16:58:36;6.60;;;1.50;;
52668;SDS011;59898;52.786;6.892;2023-01-15T17:02:32;3.55;;;1.50;;
52668;SDS011;59898;52.786;6.892;2023-01-15T17:05:50;3.33;;;1.33;;
52668;SDS011;59898;52.786;6.892;2023-01-15T17:09:13;6.22;;;1.85;;
52668;SDS011;59898;52.786;6.892;2023-01-15T17:12:38;3.55;;;1.73;;
52668;SDS011;59898;52.786;6.892;2023-01-15T17:16:23;7.63;;;3.17;;
52668;SDS011;59898;52.786;6.892;2023-01-15T17:19:44;6.57;;;1.40;;
52668;SDS011;59898;52.786;6.892;2023-01-15T17:23:04;3.05;;;1.42;;
52668;SDS011;59898;52.786;6.892;2023-01-15T17:26:30;3.63;;;1.35;;
52668;SDS011;59898;52.786;6.892;2023-01-15T17:29:52;3.13;;;1.40;;
52668;SDS011;59898;52.786;6.892;2023-01-15T17:33:13;3.55;;;1.63;;
52668;SDS011;59898;52.786;6.892;2023-01-15T17:36:34;6.38;;;1.60;;
52668;SDS011;59898;52.786;6.892;2023-01-15T17:39:55;7.50;;;2.88;;
52668;SDS011;59898;52.786;6.892;2023-01-15T17:43:16;9.90;;;1.90;;
52668;SDS011;59898;52.786;6.892;2023-01-15T17:46:36;4.00;;;1.60;;
52668;SDS011;59898;52.786;6.892;2023-01-15T17:49:57;11.63;;;1.88;;
52668;SDS011;59898;52.786;6.892;2023-01-15T17:53:18;5.60;;;2.58;;
52668;SDS011;59898;52.786;6.892;2023-01-15T17:56:38;7.85;;;2.25;;
52668;SDS011;59898;52.786;6.892;2023-01-15T18:00:17;6.72;;;2.10;;
52668;SDS011;59898;52.786;6.892;2023-01-15T18:03:57;6.95;;;2.47;;
52668;SDS011;59898;52.786;6.892;2023-01-15T18:07:38;8.25;;;3.90;;
52668;SDS011;59898;52.786;6.892;2023-01-15T18:11:01;7.50;;;2.38;;
52668;SDS011;59898;52.786;6.892;2023-01-15T18:14:22;7.45;;;2.85;;
52668;SDS011;59898;52.786;6.892;2023-01-15T18:17:43;11.63;;;2.55;;
52668;SDS011;59898;52.786;6.892;2023-01-15T18:21:04;4.00;;;1.70;;
52668;SDS011;59898;52.786;6.892;2023-01-15T18:24:25;4.72;;;2.42;;
52668;SDS011;59898;52.786;6.892;2023-01-15T18:27:45;5.63;;;1.70;;
52668;SDS011;59898;52.786;6.892;2023-01-15T18:31:06;6.72;;;2.00;;
52668;SDS011;59898;52.786;6.892;2023-01-15T18:34:27;6.10;;;2.22;;
52668;SDS011;59898;52.786;6.892;2023-01-15T18:37:48;3.65;;;2.05;;
52668;SDS011;59898;52.786;6.892;2023-01-15T18:41:13;10.23;;;3.88;;
52668;SDS011;59898;52.786;6.892;2023-01-15T18:45:07;5.57;;;2.13;;
52668;SDS011;59898;52.786;6.892;2023-01-15T18:48:47;5.68;;;2.10;;
52668;SDS011;59898;52.786;6.892;2023-01-15T18:52:08;3.17;;;1.98;;
52668;SDS011;59898;52.786;6.892;2023-01-15T18:55:49;6.55;;;2.42;;
52668;SDS011;59898;52.786;6.892;2023-01-15T18:59:11;3.65;;;1.90;;
52668;SDS011;59898;52.786;6.892;2023-01-15T19:02:33;6.32;;;2.03;;
52668;SDS011;59898;52.786;6.892;2023-01-15T19:05:54;5.80;;;2.05;;
52668;SDS011;59898;52.786;6.892;2023-01-15T19:09:25;5.55;;;2.08;;
52668;SDS011;59898;52.786;6.892;2023-01-15T19:12:47;7.22;;;2.35;;
52668;SDS011;59898;52.786;6.892;2023-01-15T19:16:08;4.22;;;2.60;;
52668;SDS011;59898;52.786;6.892;2023-01-15T19:19:48;8.45;;;2.53;;
52668;SDS011;59898;52.786;6.892;2023-01-15T19:23:08;6.10;;;2.33;;
52668;SDS011;59898;52.786;6.892;2023-01-15T19:26:29;4.88;;;1.67;;
52668;SDS011;59898;52.786;6.892;2023-01-15T19:29:50;3.97;;;1.50;;
52668;SDS011;59898;52.786;6.892;2023-01-15T19:33:11;2.13;;;1.45;;
52668;SDS011;59898;52.786;6.892;2023-01-15T19:36:32;4.55;;;1.60;;
52668;SDS011;59898;52.786;6.892;2023-01-15T19:39:52;2.67;;;1.40;;
52668;SDS011;59898;52.786;6.892;2023-01-15T19:43:13;4.15;;;1.80;;
52668;SDS011;59898;52.786;6.892;2023-01-15T19:46:53;3.90;;;1.95;;
52668;SDS011;59898;52.786;6.892;2023-01-15T19:53:57;6.05;;;3.42;;
52668;SDS011;59898;52.786;6.892;2023-01-15T19:57:21;5.70;;;3.10;;
52668;SDS011;59898;52.786;6.892;2023-01-15T20:00:43;8.60;;;3.90;;
52668;SDS011;59898;52.786;6.892;2023-01-15T20:04:07;6.20;;;3.83;;
52668;SDS011;59898;52.786;6.892;2023-01-15T20:07:28;9.07;;;4.70;;
52668;SDS011;59898;52.786;6.892;2023-01-15T20:10:49;6.97;;;4.75;;
52668;SDS011;59898;52.786;6.892;2023-01-15T20:14:10;7.90;;;5.43;;
52668;SDS011;59898;52.786;6.892;2023-01-15T20:17:30;8.43;;;5.53;;
52668;SDS011;59898;52.786;6.892;2023-01-15T20:20:53;8.63;;;5.43;;
52668;SDS011;59898;52.786;6.892;2023-01-15T20:24:14;8.45;;;5.82;;
52668;SDS011;59898;52.786;6.892;2023-01-15T20:27:36;8.43;;;6.43;;
52668;SDS011;59898;52.786;6.892;2023-01-15T20:30:58;11.40;;;5.63;;
52668;SDS011;59898;52.786;6.892;2023-01-15T20:34:19;12.93;;;6.22;;
52668;SDS011;59898;52.786;6.892;2023-01-15T20:37:40;11.10;;;5.78;;
52668;SDS011;59898;52.786;6.892;2023-01-15T20:41:04;8.48;;;5.95;;
52668;SDS011;59898;52.786;6.892;2023-01-15T20:44:46;7.18;;;5.68;;
52668;SDS011;59898;52.786;6.892;2023-01-15T20:48:12;9.70;;;5.47;;
52668;SDS011;59898;52.786;6.892;2023-01-15T20:51:33;9.88;;;5.30;;
52668;SDS011;59898;52.786;6.892;2023-01-15T20:54:53;11.07;;;5.47;;
52668;SDS011;59898;52.786;6.892;2023-01-15T20:58:14;9.15;;;5.30;;
52668;SDS011;59898;52.786;6.892;2023-01-15T21:01:35;8.30;;;4.63;;
52668;SDS011;59898;52.786;6.892;2023-01-15T21:04:55;8.27;;;4.90;;
52668;SDS011;59898;52.786;6.892;2023-01-15T21:08:16;8.55;;;3.72;;
52668;SDS011;59898;52.786;6.892;2023-01-15T21:11:39;6.93;;;3.40;;
52668;SDS011;59898;52.786;6.892;2023-01-15T21:15:01;8.27;;;4.07;;
52668;SDS011;59898;52.786;6.892;2023-01-15T21:18:22;5.65;;;3.42;;
52668;SDS011;59898;52.786;6.892;2023-01-15T21:21:44;7.18;;;4.45;;
52668;SDS011;59898;52.786;6.892;2023-01-15T21:25:05;9.20;;;3.30;;
52668;SDS011;59898;52.786;6.892;2023-01-15T21:28:28;5.63;;;3.45;;
52668;SDS011;59898;52.786;6.892;2023-01-15T21:31:49;10.20;;;3.40;;
52668;SDS011;59898;52.786;6.892;2023-01-15T21:35:10;5.35;;;3.55;;
52668;SDS011;59898;52.786;6.892;2023-01-15T21:38:31;8.48;;;2.72;;
52668;SDS011;59898;52.786;6.892;2023-01-15T21:41:52;5.13;;;3.03;;
52668;SDS011;59898;52.786;6.892;2023-01-15T21:45:31;6.88;;;2.42;;
52668;SDS011;59898;52.786;6.892;2023-01-15T21:48:52;3.88;;;2.78;;
52668;SDS011;59898;52.786;6.892;2023-01-15T21:52:14;4.72;;;2.60;;
52668;SDS011;59898;52.786;6.892;2023-01-15T21:55:37;4.53;;;2.80;;
52668;SDS011;59898;52.786;6.892;2023-01-15T21:58:58;5.60;;;3.85;;
52668;SDS011;59898;52.786;6.892;2023-01-15T22:02:19;4.88;;;3.17;;
52668;SDS011;59898;52.786;6.892;2023-01-15T22:05:42;4.90;;;2.75;;
52668;SDS011;59898;52.786;6.892;2023-01-15T22:09:03;6.88;;;3.08;;
52668;SDS011;59898;52.786;6.892;2023-01-15T22:12:24;4.13;;;3.10;;
52668;SDS011;59898;52.786;6.892;2023-01-15T22:15:51;6.68;;;2.80;;
52668;SDS011;59898;52.786;6.892;2023-01-15T22:19:13;3.72;;;2.50;;
52668;SDS011;59898;52.786;6.892;2023-01-15T22:22:39;4.35;;;2.65;;
52668;SDS011;59898;52.786;6.892;2023-01-15T22:25:59;5.20;;;2.90;;
52668;SDS011;59898;52.786;6.892;2023-01-15T22:29:21;5.07;;;2.63;;
52668;SDS011;59898;52.786;6.892;2023-01-15T22:32:49;5.68;;;3.08;;
52668;SDS011;59898;52.786;6.892;2023-01-15T22:36:10;7.25;;;3.92;;
52668;SDS011;59898;52.786;6.892;2023-01-15T22:39:33;3.53;;;2.43;;
52668;SDS011;59898;52.786;6.892;2023-01-15T22:42:53;7.82;;;2.60;;